Time,TemperatureF,DewpointF,PressureIn,WindDirection,WindDirectionDegrees,WindSpeedMPH,WindSpeedGustMPH,Humidity,HourlyPrecipIn,Conditions,Clouds,dailyrainin,SoftwareType,DateUTC
2013-12-23 00:03:00,35.8,20.0,31.21,WNW,290,0.0,-999.0,52,-99.99,,,0.00,weatherlink.com 1.10,2013-12-23 06:03:00,
2013-12-23 00:18:00,35.8,20.0,31.22,WNW,294,4.0,-999.0,52,-99.99,,,0.00,weatherlink.com 1.10,2013-12-23 06:18:00,
2013-12-23 00:33:00,35.5,20.0,31.22,WNW,297,3.0,-999.0,53,-99.99,,,0.00,weatherlink.com 1.10,2013-12-23 06:33:00,
2013-12-23 00:48:00,35.3,20.0,31.22,WNW,297,2.0,-999.0,53,-99.99,,,0.00,weatherlink.com 1.10,2013-12-23 06:48:00,
2013-12-23 01:03:00,35.0,19.0,31.23,WNW,298,2.0,-999.0,52,-99.99,,,0.00,weatherlink.com 1.10,2013-12-23 07:03:00,
2013-12-23 01:18:00,34.8,18.0,31.23,WNW,292,3.0,-999.0,51,-99.99,,,0.00,weatherlink.com 1.10,2013-12-23 07:18:00,
2013-12-23 01:33:00,34.7,18.0,31.23,WNW,294,1.0,-999.0,51,-99.99,,,0.00,weatherlink.com 1.10,2013-12-23 07:33:00,
2013-12-23 01:48:00,34.7,18.0,31.23,WNW,296,1.0,-999.0,51,-99.99,,,0.00,weatherlink.com 1.10,2013-12-23 07:48:00,
2013-12-23 02:03:00,34.4,18.0,31.23,WNW,288,2.0,-999.0,51,-99.99,,,0.00,weatherlink.com 1.10,2013-12-23 08:03:00,
2013-12-23 02:18:00,34.3,17.0,31.23,WNW,296,2.0,-999.0,50,-99.99,,,0.00,weatherlink.com 1.10,2013-12-23 08:18:00,
2013-12-23 02:33:00,34.0,17.0,31.22,WNW,291,2.0,-999.0,50,-99.99,,,0.00,weatherlink.com 1.10,2013-12-23 08:33:00,
2013-12-23 02:48:00,33.9,16.0,31.23,WNW,302,3.0,-999.0,49,-99.99,,,0.00,weatherlink.com 1.10,2013-12-23 08:48:00,
2013-12-23 03:03:00,33.6,16.0,31.23,WNW,296,3.0,-999.0,49,-99.99,,,0.00,weatherlink.com 1.10,2013-12-23 09:03:00,
2013-12-23 03:18:00,33.1,15.0,31.23,WNW,295,3.0,-999.0,48,-99.99,,,0.00,weatherlink.com 1.10,2013-12-23 09:18:00,
2013-12-23 03:33:00,33.0,15.0,31.23,WNW,294,2.0,-999.0,47,-99.99,,,0.00,weatherlink.com 1.10,2013-12-23 09:33:00,
2013-12-23 03:48:00,32.8,14.0,31.22,WNW,294,3.0,-999.0,46,-99.99,,,0.00,weatherlink.com 1.10,2013-12-23 09:48:00,
2013-12-23 04:03:00,32.5,13.0,31.23,WNW,296,2.0,-999.0,45,-99.99,,,0.00,weatherlink.com 1.10,2013-12-23 10:03:00,
2013-12-23 04:18:00,32.3,13.0,31.23,WNW,294,3.0,-999.0,45,-99.99,,,0.00,weatherlink.com 1.10,2013-12-23 10:18:00,
2013-12-23 04:33:00,32.1,12.0,31.24,WNW,294,2.0,-999.0,44,-99.99,,,0.00,weatherlink.com 1.10,2013-12-23 10:33:00,
2013-12-23 04:48:00,31.9,12.0,31.23,WNW,294,2.0,-999.0,43,-99.99,,,0.00,weatherlink.com 1.10,2013-12-23 10:48:00,
2013-12-23 05:03:00,31.8,10.0,31.24,WNW,295,2.0,-999.0,41,-99.99,,,0.00,weatherlink.com 1.10,2013-12-23 11:03:00,
2013-12-23 05:18:00,32.2,10.0,31.25,WNW,302,5.0,-999.0,39,-99.99,,,0.00,weatherlink.com 1.10,2013-12-23 11:18:00,
2013-12-23 05:33:00,32.4,11.0,31.25,NW,315,4.0,-999.0,41,-99.99,,,0.00,weatherlink.com 1.10,2013-12-23 11:33:00,
2013-12-23 05:48:00,32.3,11.0,31.24,NW,315,8.0,-999.0,42,-99.99,,,0.00,weatherlink.com 1.10,2013-12-23 11:48:00,
2013-12-23 06:03:00,32.1,12.0,31.25,WNW,298,3.0,-999.0,44,-99.99,,,0.00,weatherlink.com 1.10,2013-12-23 12:03:00,
2013-12-23 06:18:00,31.9,13.0,31.26,NW,304,6.0,-999.0,45,-99.99,,,0.00,weatherlink.com 1.10,2013-12-23 12:18:00,
2013-12-23 06:33:00,31.6,13.0,31.27,NW,317,5.0,-999.0,46,-99.99,,,0.00,weatherlink.com 1.10,2013-12-23 12:33:00,
2013-12-23 06:48:00,31.5,12.0,31.28,NW,319,7.0,-999.0,45,-99.99,,,0.00,weatherlink.com 1.10,2013-12-23 12:48:00,
2013-12-23 07:03:00,31.4,12.0,31.28,NW,317,10.0,-999.0,45,-99.99,,,0.00,weatherlink.com 1.10,2013-12-23 13:03:00,
2013-12-23 07:18:00,31.1,12.0,31.29,NW,315,6.0,-999.0,45,-99.99,,,0.00,weatherlink.com 1.10,2013-12-23 13:18:00,
2013-12-23 07:33:00,31.1,11.0,31.29,WNW,300,8.0,-999.0,44,-99.99,,,0.00,weatherlink.com 1.10,2013-12-23 13:33:00,
2013-12-23 07:48:00,31.2,11.0,31.30,NNW,341,6.0,-999.0,44,-99.99,,,0.00,weatherlink.com 1.10,2013-12-23 13:48:00,
2013-12-23 08:03:00,31.5,12.0,31.30,NW,325,8.0,-999.0,45,-99.99,,,0.00,weatherlink.com 1.10,2013-12-23 14:03:00,
2013-12-23 08:18:00,31.9,14.0,31.31,NW,315,3.0,-999.0,47,-99.99,,,0.00,weatherlink.com 1.10,2013-12-23 14:18:00,
2013-12-23 08:33:00,32.5,16.0,31.32,NNW,340,8.0,-999.0,50,-99.99,,,0.00,weatherlink.com 1.10,2013-12-23 14:33:00,
2013-12-23 08:48:00,33.0,17.0,31.33,NW,325,11.0,-999.0,52,-99.99,,,0.00,weatherlink.com 1.10,2013-12-23 14:48:00,
2013-12-23 09:03:00,33.5,18.0,31.33,NNW,342,6.0,-999.0,54,-99.99,,,0.00,weatherlink.com 1.10,2013-12-23 15:03:00,
2013-12-23 09:19:00,34.1,21.0,31.34,North,355,4.0,-999.0,58,-99.99,,,0.00,weatherlink.com 1.10,2013-12-23 15:19:00,
2013-12-23 09:34:00,34.7,22.0,31.35,North,355,5.0,-999.0,59,-99.99,,,0.00,weatherlink.com 1.10,2013-12-23 15:34:00,
2013-12-23 09:48:00,35.6,23.0,31.36,NW,324,6.0,-999.0,61,-99.99,,,0.00,weatherlink.com 1.10,2013-12-23 15:48:00,
2013-12-23 10:03:00,35.9,25.0,31.36,NW,321,7.0,-999.0,65,-99.99,,,0.00,weatherlink.com 1.10,2013-12-23 16:03:00,
2013-12-23 10:19:00,36.8,26.0,31.37,NW,321,6.0,-999.0,65,-99.99,,,0.00,weatherlink.com 1.10,2013-12-23 16:19:00,
2013-12-23 10:34:00,37.7,28.0,31.36,NW,319,9.0,-999.0,69,-99.99,,,0.00,weatherlink.com 1.10,2013-12-23 16:34:00,
2013-12-23 10:49:00,38.1,29.0,31.37,NW,316,6.0,-999.0,69,-99.99,,,0.00,weatherlink.com 1.10,2013-12-23 16:49:00,
2013-12-23 11:04:00,38.9,30.0,31.36,WNW,292,4.0,-999.0,70,-99.99,,,0.00,weatherlink.com 1.10,2013-12-23 17:04:00,
2013-12-23 11:19:00,40.0,31.0,31.36,NW,311,5.0,-999.0,70,-99.99,,,0.00,weatherlink.com 1.10,2013-12-23 17:19:00,
2013-12-23 11:34:00,40.7,32.0,31.36,NW,315,2.0,-999.0,70,-99.99,,,0.00,weatherlink.com 1.10,2013-12-23 17:34:00,
2013-12-23 11:49:00,41.4,32.0,31.34,WNW,300,2.0,-999.0,70,-99.99,,,0.00,weatherlink.com 1.10,2013-12-23 17:49:00,
2013-12-23 12:04:00,42.5,33.0,31.34,WNW,300,4.0,-999.0,70,-99.99,,,0.00,weatherlink.com 1.10,2013-12-23 18:04:00,
2013-12-23 12:19:00,43.4,34.0,31.34,NW,315,8.0,-999.0,69,-99.99,,,0.00,weatherlink.com 1.10,2013-12-23 18:19:00,
2013-12-23 12:34:00,44.3,34.0,31.33,WNW,296,4.0,-999.0,67,-99.99,,,0.00,weatherlink.com 1.10,2013-12-23 18:34:00,
2013-12-23 12:50:00,45.1,35.0,31.33,NW,315,2.0,-999.0,68,-99.99,,,0.00,weatherlink.com 1.10,2013-12-23 18:50:00,
2013-12-23 13:05:00,46.1,35.0,31.32,NW,311,4.0,-999.0,66,-99.99,,,0.00,weatherlink.com 1.10,2013-12-23 19:05:00,
2013-12-23 13:20:00,47.0,35.0,31.32,WNW,301,4.0,-999.0,64,-99.99,,,0.00,weatherlink.com 1.10,2013-12-23 19:20:00,
2013-12-23 13:35:00,47.4,34.0,31.31,WNW,297,5.0,-999.0,61,-99.99,,,0.00,weatherlink.com 1.10,2013-12-23 19:35:00,
2013-12-23 13:50:00,47.8,34.0,31.31,WNW,302,3.0,-999.0,60,-99.99,,,0.00,weatherlink.com 1.10,2013-12-23 19:50:00,
2013-12-23 14:05:00,48.3,34.0,31.30,NW,313,6.0,-999.0,59,-99.99,,,0.00,weatherlink.com 1.10,2013-12-23 20:05:00,
2013-12-23 14:20:00,48.7,34.0,31.31,NNW,332,5.0,-999.0,58,-99.99,,,0.00,weatherlink.com 1.10,2013-12-23 20:20:00,
2013-12-23 14:35:00,49.4,35.0,31.31,NW,313,3.0,-999.0,59,-99.99,,,0.00,weatherlink.com 1.10,2013-12-23 20:35:00,
2013-12-23 14:50:00,49.5,35.0,31.32,NW,313,4.0,-999.0,57,-99.99,,,0.00,weatherlink.com 1.10,2013-12-23 20:50:00,
2013-12-23 15:05:00,49.6,33.0,31.32,NW,322,7.0,-999.0,54,-99.99,,,0.00,weatherlink.com 1.10,2013-12-23 21:05:00,
2013-12-23 15:20:00,49.7,33.0,31.32,NW,312,6.0,-999.0,54,-99.99,,,0.00,weatherlink.com 1.10,2013-12-23 21:20:00,
2013-12-23 15:35:00,49.7,34.0,31.32,NW,307,4.0,-999.0,55,-99.99,,,0.00,weatherlink.com 1.10,2013-12-23 21:35:00,
2013-12-23 15:50:00,50.0,34.0,31.32,NW,310,4.0,-999.0,55,-99.99,,,0.00,weatherlink.com 1.10,2013-12-23 21:50:00,
2013-12-23 16:05:00,50.0,35.0,31.33,WNW,301,3.0,-999.0,56,-99.99,,,0.00,weatherlink.com 1.10,2013-12-23 22:05:00,
2013-12-23 16:20:00,49.8,34.0,31.33,NW,311,2.0,-999.0,55,-99.99,,,0.00,weatherlink.com 1.10,2013-12-23 22:20:00,
2013-12-23 16:35:00,49.5,34.0,31.33,WNW,295,1.0,-999.0,56,-99.99,,,0.00,weatherlink.com 1.10,2013-12-23 22:35:00,
2013-12-23 16:50:00,48.8,34.0,31.34,WNW,302,5.0,-999.0,58,-99.99,,,0.00,weatherlink.com 1.10,2013-12-23 22:50:00,
2013-12-23 17:05:00,47.8,33.0,31.34,WNW,299,2.0,-999.0,58,-99.99,,,0.00,weatherlink.com 1.10,2013-12-23 23:05:00,
2013-12-23 17:20:00,47.0,34.0,31.34,WNW,299,0.0,-999.0,61,-99.99,,,0.00,weatherlink.com 1.10,2013-12-23 23:20:00,
2013-12-23 17:35:00,46.1,34.0,31.34,WNW,299,0.0,-999.0,63,-99.99,,,0.00,weatherlink.com 1.10,2013-12-23 23:35:00,
2013-12-23 17:49:00,44.7,34.0,31.35,WNW,299,0.0,-999.0,66,-99.99,,,0.00,weatherlink.com 1.10,2013-12-23 23:49:00,
2013-12-23 18:04:00,42.5,33.0,31.34,WNW,299,0.0,-999.0,69,-99.99,,,0.00,weatherlink.com 1.10,2013-12-24 00:04:00,
2013-12-23 18:19:00,40.8,31.0,31.35,WNW,299,0.0,-999.0,69,-99.99,,,0.00,weatherlink.com 1.10,2013-12-24 00:19:00,
2013-12-23 18:50:00,38.3,29.0,31.36,WNW,299,0.0,-999.0,68,-99.99,,,0.00,weatherlink.com 1.10,2013-12-24 00:50:00,
2013-12-23 19:20:00,36.8,26.0,31.37,WNW,299,0.0,-999.0,64,-99.99,,,0.00,weatherlink.com 1.10,2013-12-24 01:20:00,
2013-12-23 19:43:00,36.2,23.0,31.38,WNW,299,0.0,-999.0,60,-99.99,,,0.00,weatherlink.com 1.10,2013-12-24 01:43:00,
2013-12-23 19:50:00,35.6,22.0,31.38,WNW,300,0.0,-999.0,58,-99.99,,,0.00,weatherlink.com 1.10,2013-12-24 01:50:00,
2013-12-23 20:05:00,36.0,21.0,31.39,WNW,299,0.0,-999.0,54,-99.99,,,0.00,weatherlink.com 1.10,2013-12-24 02:05:00,
2013-12-23 20:20:00,37.7,25.0,31.39,WNW,299,0.0,-999.0,60,-99.99,,,0.00,weatherlink.com 1.10,2013-12-24 02:20:00,
2013-12-23 20:35:00,39.4,30.0,31.39,WNW,299,0.0,-999.0,69,-99.99,,,0.00,weatherlink.com 1.10,2013-12-24 02:35:00,
2013-12-23 20:50:00,40.0,31.0,31.40,WNW,299,0.0,-999.0,70,-99.99,,,0.00,weatherlink.com 1.10,2013-12-24 02:50:00,
2013-12-23 21:05:00,40.3,31.0,31.40,WNW,299,0.0,-999.0,70,-99.99,,,0.00,weatherlink.com 1.10,2013-12-24 03:05:00,
2013-12-23 21:20:00,39.7,31.0,31.40,WNW,299,0.0,-999.0,70,-99.99,,,0.00,weatherlink.com 1.10,2013-12-24 03:20:00,
2013-12-23 21:35:00,39.6,31.0,31.39,WNW,299,0.0,-999.0,70,-99.99,,,0.00,weatherlink.com 1.10,2013-12-24 03:35:00,
2013-12-23 21:50:00,39.3,30.0,31.40,WNW,299,0.0,-999.0,70,-99.99,,,0.00,weatherlink.com 1.10,2013-12-24 03:50:00,
2013-12-23 22:05:00,38.0,29.0,31.41,WNW,299,0.0,-999.0,70,-99.99,,,0.00,weatherlink.com 1.10,2013-12-24 04:05:00,
2013-12-23 22:20:00,36.2,27.0,31.41,WNW,299,0.0,-999.0,70,-99.99,,,0.00,weatherlink.com 1.10,2013-12-24 04:20:00,
2013-12-23 22:43:00,34.9,26.0,31.42,WNW,299,0.0,-999.0,70,-99.99,,,0.00,weatherlink.com 1.10,2013-12-24 04:43:00,
2013-12-23 22:50:00,34.0,24.0,31.41,WNW,299,0.0,-999.0,68,-99.99,,,0.00,weatherlink.com 1.10,2013-12-24 04:50:00,
2013-12-23 23:05:00,33.5,22.0,31.42,WNW,299,0.0,-999.0,64,-99.99,,,0.00,weatherlink.com 1.10,2013-12-24 05:05:00,
2013-12-23 23:20:00,33.1,20.0,31.41,WNW,299,0.0,-999.0,59,-99.99,,,0.00,weatherlink.com 1.10,2013-12-24 05:20:00,
2013-12-23 23:35:00,32.5,19.0,31.42,WNW,300,0.0,-999.0,57,-99.99,,,0.00,weatherlink.com 1.10,2013-12-24 05:35:00,
2013-12-23 23:50:00,32.1,18.0,31.42,WNW,299,0.0,-999.0,56,-99.99,,,0.00,weatherlink.com 1.10,2013-12-24 05:50:00,